Time;durP1;ratioP1;P1;durP2;ratioP2;P2;SDS_P1;SDS_P2;PMS_P1;PMS_P2;Temp;Humidity;BMP_temperature;BMP_pressure;BME280_temperature;BME280_humidity;BME280_pressure;Samples;Min_cycle;Max_cycle;Signal;HPM_P1;HPM_P2
2023/09/18 00:00:11;;;;;;;;;;;;;;;18.70;42.52;100416.88;4963998;28;98295;-70
2023/09/18 00:02:40;;;;;;;;;;;;;;;18.77;42.71;100411.72;4947988;28;98462;-71
2023/09/18 00:05:07;;;;;;;;;;;;;;;18.85;42.57;100415.56;4948768;28;98128;-71
2023/09/18 00:07:33;;;;;;;;;;;;;;;18.92;42.66;100415.88;4928504;28;100175;-71
2023/09/18 00:09:59;;;;;;;;;;;;;;;18.96;42.70;100411.38;4945915;28;97926;-70
2023/09/18 00:12:25;;;;;;;;;;;;;;;19.01;42.62;100408.47;4943743;28;111747;-68
2023/09/18 00:14:52;;;;;;;;;;;;;;;19.03;42.57;100400.75;4944814;28;98397;-70
2023/09/18 00:17:19;;;;;;;;;;;;;;;19.06;42.52;100404.75;4943704;28;98043;-68
2023/09/18 00:19:45;;;;;;;;;;;;;;;19.06;42.54;100400.13;4943520;28;98776;-71
2023/09/18 00:22:11;;;;;;;;;;;;;;;19.06;42.59;100400.13;4964586;28;98473;-71
2023/09/18 00:24:38;;;;;;;;;;;;;;;19.08;42.67;100402.50;4963736;28;99579;-68
2023/09/18 00:27:04;;;;;;;;;;;;;;;19.08;42.57;100397.84;4931170;28;98840;-71
2023/09/18 00:29:31;;;;;;;;;;;;;;;19.07;42.58;100393.53;4974067;27;98776;-71
2023/09/18 00:31:57;;;;;;;;;;;;;;;19.07;42.54;100387.25;4959769;28;98144;-70
2023/09/18 00:34:23;;;;;;;;;;;;;;;19.07;42.63;100382.59;4944789;28;99171;-70
2023/09/18 00:36:54;;;;;;;;;;;;;;;19.07;42.60;100379.88;4944209;28;98581;-70
2023/09/18 00:39:20;;;;;;;;;;;;;;;19.06;42.59;100377.44;4947505;28;98418;-71
2023/09/18 00:41:49;;;;;;;;;;;;;;;19.06;42.74;100377.44;4930500;28;98525;-70
2023/09/18 00:44:15;;;;;;;;;;;;;;;19.06;42.73;100369.25;4943308;28;97890;-71
2023/09/18 00:46:42;;;;;;;;;;;;;;;19.05;42.65;100371.19;4944890;28;98680;-68
2023/09/18 00:49:09;;;;;;;;;;;;;;;19.04;42.69;100366.06;4960951;28;99718;-68
2023/09/18 00:51:36;;;;;;;;;;;;;;;19.02;42.79;100365.56;4927848;28;98315;-68
2023/09/18 00:54:03;;;;;;;;;;;;;;;19.01;42.88;100367.50;4946645;28;98255;-68
2023/09/18 00:56:29;;;;;;;;;;;;;;;18.99;42.94;100363.50;4939798;28;98519;-68
2023/09/18 00:58:56;;;;;;;;;;;;;;;18.96;42.92;100356.75;4958534;28;98811;-68
2023/09/18 01:01:23;;;;;;;;;;;;;;;18.94;42.72;100360.94;4936260;28;98220;-68
2023/09/18 01:03:51;;;;;;;;;;;;;;;18.92;42.62;100360.47;4929018;28;98608;-70
2023/09/18 01:06:19;;;;;;;;;;;;;;;18.89;42.78;100359.19;4942403;28;99447;-71
2023/09/18 01:08:47;;;;;;;;;;;;;;;18.85;42.87;100352.78;4976057;27;98131;-68
2023/09/18 01:11:41;;;;;;;;;;;;;;;18.84;42.98;100351.97;4959549;28;99062;-70
2023/09/18 01:14:30;;;;;;;;;;;;;;;18.81;42.74;100349.09;4962873;27;98398;-68
2023/09/18 01:17:04;;;;;;;;;;;;;;;18.77;42.71;100343.47;4935866;28;99445;-68
2023/09/18 01:19:38;;;;;;;;;;;;;;;18.74;42.86;100338.66;4926063;28;98087;-71
2023/09/18 01:22:05;;;;;;;;;;;;;;;18.71;42.95;100333.88;4945501;28;98165;-71
2023/09/18 01:24:32;;;;;;;;;;;;;;;18.69;42.79;100325.16;4951717;28;102359;-68
2023/09/18 01:27:00;;;;;;;;;;;;;;;18.67;42.89;100326.59;4963158;28;98689;-71
2023/09/18 01:29:26;;;;;;;;;;;;;;;18.63;42.91;100327.28;4962064;28;98256;-68
2023/09/18 01:31:54;;;;;;;;;;;;;;;18.60;42.75;100329.84;4950425;28;99324;-69
2023/09/18 01:34:25;;;;;;;;;;;;;;;18.57;42.80;100317.63;4935581;28;99262;-68
2023/09/18 01:36:53;;;;;;;;;;;;;;;18.53;42.79;100324.06;4949065;28;98412;-68
2023/09/18 01:39:20;;;;;;;;;;;;;;;18.51;43.05;100323.56;4944832;28;98127;-68
2023/09/18 01:41:47;;;;;;;;;;;;;;;18.48;43.05;100316.06;4977287;27;98636;-68
2023/09/18 01:44:13;;;;;;;;;;;;;;;18.44;42.89;100312.38;4946588;28;98242;-70
2023/09/18 01:46:39;;;;;;;;;;;;;;;18.42;42.84;100312.69;4944953;28;98227;-68
2023/09/18 01:49:06;;;;;;;;;;;;;;;18.38;43.09;100307.06;4928659;28;98167;-68
2023/09/18 01:51:33;;;;;;;;;;;;;;;18.37;43.04;100301.94;4947485;28;98298;-68
2023/09/18 01:54:00;;;;;;;;;;;;;;;18.34;42.88;100305.31;4926930;28;98135;-70
2023/09/18 01:56:26;;;;;;;;;;;;;;;18.30;43.17;100305.16;4946518;28;99298;-70
2023/09/18 01:58:52;;;;;;;;;;;;;;;18.27;43.04;100307.72;4944951;28;98127;-70
2023/09/18 02:01:20;;;;;;;;;;;;;;;18.25;43.07;100315.44;4924114;28;100149;-67
2023/09/18 02:03:47;;;;;;;;;;;;;;;18.22;43.10;100311.44;4967722;28;99281;-67
2023/09/18 02:06:14;;;;;;;;;;;;;;;18.18;42.95;100305.00;4952274;28;98114;-67
2023/09/18 02:08:40;;;;;;;;;;;;;;;18.15;42.97;100298.25;4950834;28;98291;-69
2023/09/18 02:11:06;;;;;;;;;;;;;;;18.12;43.01;100296.19;4951573;28;99364;-67
2023/09/18 02:13:33;;;;;;;;;;;;;;;18.09;43.18;100294.09;4935671;28;98313;-67
2023/09/18 02:16:00;;;;;;;;;;;;;;;18.07;43.04;100292.81;4926742;28;97971;-69
2023/09/18 02:18:27;;;;;;;;;;;;;;;18.05;42.96;100295.09;4977913;27;98029;-67
2023/09/18 02:20:54;;;;;;;;;;;;;;;18.02;43.23;100284.81;4932062;28;100800;-69
2023/09/18 02:23:21;;;;;;;;;;;;;;;18.01;43.05;100289.47;4947684;28;98344;-68
2023/09/18 02:25:54;;;;;;;;;;;;;;;17.98;43.03;100281.91;4928847;28;98198;-69
2023/09/18 02:28:21;;;;;;;;;;;;;;;17.96;43.05;100281.44;4961352;27;99596;-67
2023/09/18 02:30:49;;;;;;;;;;;;;;;17.94;43.23;100280.97;4961864;28;98593;-67
2023/09/18 02:33:17;;;;;;;;;;;;;;;17.90;42.78;100278.06;4949387;28;98446;-69
2023/09/18 02:35:43;;;;;;;;;;;;;;;17.87;43.14;100273.25;4935688;28;99232;-70
2023/09/18 02:38:09;;;;;;;;;;;;;;;17.84;43.02;100271.19;4924016;28;98639;-70
2023/09/18 02:40:36;;;;;;;;;;;;;;;17.81;43.05;100269.09;4948038;28;99202;-70
2023/09/18 02:43:04;;;;;;;;;;;;;;;17.78;43.21;100267.00;4943361;28;99403;-67
2023/09/18 02:45:33;;;;;;;;;;;;;;;17.78;43.29;100258.03;4961349;28;100059;-70
2023/09/18 02:47:59;;;;;;;;;;;;;;;17.76;43.25;100262.97;4936726;28;98169;-70
2023/09/18 02:50:25;;;;;;;;;;;;;;;17.74;43.35;100257.03;4961721;28;98291;-67
2023/09/18 02:52:52;;;;;;;;;;;;;;;17.73;43.04;100253.50;4943364;28;99506;-69
2023/09/18 02:55:19;;;;;;;;;;;;;;;17.72;43.31;100254.59;4947173;28;98184;-67
2023/09/18 02:57:46;;;;;;;;;;;;;;;17.70;43.13;100251.41;4957436;28;98577;-67
2023/09/18 03:00:13;;;;;;;;;;;;;;;17.67;43.38;100239.22;4930591;28;98070;-67
2023/09/18 03:02:40;;;;;;;;;;;;;;;17.66;43.15;100234.09;4949491;28;98255;-67
2023/09/18 03:05:08;;;;;;;;;;;;;;;17.65;43.28;100232.50;4965208;28;98094;-67
2023/09/18 03:07:35;;;;;;;;;;;;;;;17.65;43.11;100235.22;4948503;28;98858;-70
2023/09/18 03:10:02;;;;;;;;;;;;;;;17.64;43.02;100230.88;4946955;28;98359;-70
2023/09/18 03:12:30;;;;;;;;;;;;;;;17.63;43.18;100230.09;4949349;28;97773;-68
2023/09/18 03:14:57;;;;;;;;;;;;;;;17.61;43.40;100235.06;4963276;28;98187;-67
2023/09/18 03:17:23;;;;;;;;;;;;;;;17.59;43.38;100228.31;4928589;28;99830;-70
2023/09/18 03:19:50;;;;;;;;;;;;;;;17.56;43.27;100232.47;4925450;28;98551;-70
2023/09/18 03:22:19;;;;;;;;;;;;;;;17.56;43.39;100234.41;4961421;28;119247;-70
2023/09/18 03:24:47;;;;;;;;;;;;;;;17.56;43.32;100237.13;4953143;28;98417;-70
2023/09/18 03:27:14;;;;;;;;;;;;;;;17.55;43.50;100230.88;4945446;28;98737;-70
2023/09/18 03:29:40;;;;;;;;;;;;;;;17.54;43.21;100229.28;4960734;28;98439;-68
2023/09/18 03:32:07;;;;;;;;;;;;;;;17.54;43.36;100231.22;4945443;28;99346;-68
2023/09/18 03:34:33;;;;;;;;;;;;;;;17.54;43.27;100218.38;4957627;27;98385;-67
2023/09/18 03:36:59;;;;;;;;;;;;;;;17.55;43.46;100216.47;4931900;28;98212;-71
2023/09/18 03:39:26;;;;;;;;;;;;;;;17.55;43.39;100219.19;4943276;28;98413;-70
2023/09/18 03:41:53;;;;;;;;;;;;;;;17.55;43.33;100219.97;4965064;28;98674;-70
2023/09/18 03:44:21;;;;;;;;;;;;;;;17.54;43.28;100218.38;4963380;28;98738;-68
2023/09/18 03:46:47;;;;;;;;;;;;;;;17.52;43.27;100204.25;4931388;28;98549;-70
2023/09/18 03:49:14;;;;;;;;;;;;;;;17.52;43.21;100207.00;4944552;28;98279;-67
2023/09/18 03:51:40;;;;;;;;;;;;;;;17.50;43.43;100205.72;4947959;28;98912;-67
2023/09/18 03:54:08;;;;;;;;;;;;;;;17.48;43.31;100195.13;4931447;28;98234;-67
2023/09/18 03:56:35;;;;;;;;;;;;;;;17.46;43.42;100191.94;4948693;28;97981;-70
2023/09/18 03:59:04;;;;;;;;;;;;;;;17.43;43.46;100192.56;4963466;28;99802;-67
2023/09/18 04:01:31;;;;;;;;;;;;;;;17.43;43.35;100196.09;4962540;28;99829;-69
2023/09/18 04:03:58;;;;;;;;;;;;;;;17.41;43.28;100187.44;4946848;27;98046;-68
2023/09/18 04:06:25;;;;;;;;;;;;;;;17.41;43.47;100186.66;4949419;28;98125;-70
2023/09/18 04:08:51;;;;;;;;;;;;;;;17.38;43.45;100188.09;4937979;28;99259;-68
2023/09/18 04:11:26;;;;;;;;;;;;;;;17.36;43.42;100195.75;4948881;28;99499;-67
2023/09/18 04:13:52;;;;;;;;;;;;;;;17.33;43.35;100196.41;4937749;28;97968;-70
2023/09/18 04:16:19;;;;;;;;;;;;;;;17.31;43.43;100192.41;4948705;28;101935;-70
2023/09/18 04:18:45;;;;;;;;;;;;;;;17.29;43.41;100194.63;4947801;28;99315;-70
2023/09/18 04:21:13;;;;;;;;;;;;;;;17.28;43.41;100196.56;4931096;28;98303;-68
2023/09/18 04:23:39;;;;;;;;;;;;;;;17.27;43.40;100188.72;4961096;28;97838;-67
2023/09/18 04:26:07;;;;;;;;;;;;;;;17.25;43.43;100191.75;4945742;28;98177;-67
2023/09/18 04:28:33;;;;;;;;;;;;;;;17.25;43.43;100186.31;4949070;28;98196;-67
2023/09/18 04:31:00;;;;;;;;;;;;;;;17.24;43.60;100178.44;4939556;28;97926;-70
2023/09/18 04:33:28;;;;;;;;;;;;;;;17.24;43.38;100183.91;4958102;28;100582;-68
2023/09/18 04:35:55;;;;;;;;;;;;;;;17.22;43.53;100181.50;4949848;28;98121;-70
2023/09/18 04:38:23;;;;;;;;;;;;;;;17.22;43.54;100178.78;4950538;28;98260;-70
2023/09/18 04:40:49;;;;;;;;;;;;;;;17.21;43.43;100182.59;4944778;28;100264;-67
2023/09/18 04:43:15;;;;;;;;;;;;;;;17.20;43.40;100172.03;4946689;28;98290;-67
2023/09/18 04:45:42;;;;;;;;;;;;;;;17.19;43.65;100182.13;4945354;28;98404;-67
2023/09/18 04:48:08;;;;;;;;;;;;;;;17.18;43.57;100188.69;4929617;28;101099;-67
2023/09/18 04:50:36;;;;;;;;;;;;;;;17.18;43.42;100178.59;4948205;28;97969;-70
2023/09/18 04:53:04;;;;;;;;;;;;;;;17.20;43.63;100182.94;4956243;28;98322;-70
2023/09/18 04:55:31;;;;;;;;;;;;;;;17.20;43.50;100180.22;4944162;28;99624;-70
2023/09/18 04:57:58;;;;;;;;;;;;;;;17.21;43.45;100179.88;4962949;28;98046;-67
2023/09/18 05:00:26;;;;;;;;;;;;;;;17.18;43.43;100178.59;4938898;28;98527;-67
2023/09/18 05:02:53;;;;;;;;;;;;;;;17.17;43.51;100174.28;4963308;28;98466;-67
2023/09/18 05:05:20;;;;;;;;;;;;;;;17.17;43.51;100168.84;4926169;28;98272;-70
2023/09/18 05:07:46;;;;;;;;;;;;;;;17.18;43.38;100167.72;4965460;28;98923;-70
2023/09/18 05:10:13;;;;;;;;;;;;;;;17.20;43.12;100172.03;4963067;28;98156;-70
2023/09/18 05:12:42;;;;;;;;;;;;;;;17.21;43.47;100162.75;4949402;28;98047;-70
2023/09/18 05:15:16;;;;;;;;;;;;;;;17.22;43.45;100165.16;4964535;28;97860;-67
2023/09/18 05:17:47;;;;;;;;;;;;;;;17.25;43.48;100166.44;4945547;28;98538;-69
2023/09/18 05:20:14;;;;;;;;;;;;;;;17.26;43.72;100160.69;4972627;27;99299;-70
2023/09/18 05:22:41;;;;;;;;;;;;;;;17.28;43.46;100152.97;4920599;28;98902;-67
2023/09/18 05:25:09;;;;;;;;;;;;;;;17.31;43.46;100148.81;4960033;28;98238;-70
2023/09/18 05:27:43;;;;;;;;;;;;;;;17.35;43.49;100147.84;4962340;28;99054;-68
2023/09/18 05:30:20;;;;;;;;;;;;;;;17.39;43.39;100146.09;4962209;28;98577;-70
2023/09/18 05:32:47;;;;;;;;;;;;;;;17.47;43.40;100151.88;4952438;28;98246;-67
2023/09/18 05:35:14;;;;;;;;;;;;;;;17.53;43.22;100145.94;4963540;28;98473;-69
2023/09/18 05:37:44;;;;;;;;;;;;;;;17.61;43.04;100139.69;4951776;28;98009;-67
2023/09/18 05:40:11;;;;;;;;;;;;;;;17.69;43.26;100140.00;4961995;28;98708;-70
2023/09/18 05:42:43;;;;;;;;;;;;;;;17.77;43.06;100131.84;4966325;28;98913;-67
2023/09/18 05:45:13;;;;;;;;;;;;;;;17.87;43.08;100126.03;4948671;28;101153;-68
2023/09/18 05:47:40;;;;;;;;;;;;;;;17.97;43.07;100129.56;4953717;28;100484;-70
2023/09/18 05:50:14;;;;;;;;;;;;;;;18.07;43.11;100129.19;4948563;28;99458;-68
2023/09/18 05:52:42;;;;;;;;;;;;;;;18.17;42.88;100130.78;4942802;28;97991;-70
2023/09/18 05:55:09;;;;;;;;;;;;;;;18.27;42.96;100122.22;4968983;28;98389;-68
2023/09/18 05:57:37;;;;;;;;;;;;;;;18.35;42.85;100119.50;4969634;28;98084;-70
2023/09/18 06:00:04;;;;;;;;;;;;;;;18.45;42.87;100122.97;4939356;28;98346;-67
2023/09/18 06:02:32;;;;;;;;;;;;;;;18.54;43.00;100120.97;4949924;28;100362;-70
2023/09/18 06:05:02;;;;;;;;;;;;;;;18.65;42.86;100117.56;4951818;28;98160;-70
2023/09/18 06:07:29;;;;;;;;;;;;;;;18.76;42.72;100114.50;4948221;28;99906;-68
2023/09/18 06:09:59;;;;;;;;;;;;;;;18.83;42.83;100109.31;4952580;28;98327;-70
2023/09/18 06:12:25;;;;;;;;;;;;;;;18.90;42.90;100106.81;4953411;28;99438;-67
2023/09/18 06:14:53;;;;;;;;;;;;;;;18.94;42.82;100105.03;4935584;28;98186;-70
2023/09/18 06:17:19;;;;;;;;;;;;;;;19.00;42.72;100109.19;4947966;28;97964;-68
2023/09/18 06:19:46;;;;;;;;;;;;;;;19.04;42.89;100098.41;4949894;28;98727;-67
2023/09/18 06:22:13;;;;;;;;;;;;;;;19.06;42.80;100091.47;4949658;28;98428;-67
2023/09/18 06:24:39;;;;;;;;;;;;;;;19.10;42.84;100084.22;4947832;28;98881;-70
2023/09/18 06:27:06;;;;;;;;;;;;;;;19.16;42.74;100087.53;4936262;28;100288;-70
2023/09/18 06:29:38;;;;;;;;;;;;;;;19.22;42.85;100082.69;4949554;28;100189;-68
2023/09/18 06:32:06;;;;;;;;;;;;;;;19.28;42.84;100070.41;4940812;28;97954;-67
2023/09/18 06:34:33;;;;;;;;;;;;;;;19.36;42.83;100067.59;4949052;28;97808;-67
2023/09/18 06:36:59;;;;;;;;;;;;;;;19.48;42.75;100066.03;4922824;28;98314;-68
2023/09/18 06:39:26;;;;;;;;;;;;;;;19.64;42.70;100066.22;4952955;28;99737;-69
2023/09/18 06:41:52;;;;;;;;;;;;;;;20.20;42.01;100069.28;4926190;28;98435;-68
2023/09/18 06:44:21;;;;;;;;;;;;;;;20.48;41.93;100067.47;4953765;28;98508;-70
2023/09/18 06:46:47;;;;;;;;;;;;;;;20.54;42.11;100068.06;4933288;28;98163;-68
2023/09/18 06:49:14;;;;;;;;;;;;;;;20.57;42.02;100064.63;4932146;28;99860;-68
2023/09/18 06:51:40;;;;;;;;;;;;;;;20.49;42.29;100058.16;4933861;28;98237;-68
2023/09/18 06:54:07;;;;;;;;;;;;;;;20.50;42.34;100058.94;4934886;28;98256;-70
2023/09/18 06:56:34;;;;;;;;;;;;;;;20.70;42.21;100049.00;4933993;28;98253;-68
2023/09/18 06:59:01;;;;;;;;;;;;;;;20.78;42.19;100045.31;4978517;27;102064;-70
2023/09/18 07:01:28;;;;;;;;;;;;;;;20.79;42.23;100047.72;4949830;28;99459;-70
2023/09/18 07:03:56;;;;;;;;;;;;;;;20.84;42.20;100042.00;4951126;28;98704;-67
2023/09/18 07:06:22;;;;;;;;;;;;;;;20.87;42.25;100032.31;4937132;28;98208;-70
2023/09/18 07:08:53;;;;;;;;;;;;;;;21.33;41.81;100028.13;4966552;28;97874;-68
2023/09/18 07:11:20;;;;;;;;;;;;;;;21.24;41.93;100029.41;4926729;28;98760;-68
2023/09/18 07:13:47;;;;;;;;;;;;;;;21.15;42.39;100029.56;4951193;28;98248;-68
2023/09/18 07:16:14;;;;;;;;;;;;;;;21.57;41.88;100023.69;4949018;28;98448;-71
2023/09/18 07:18:40;;;;;;;;;;;;;;;21.75;41.76;100021.41;4950852;28;97885;-70
2023/09/18 07:21:08;;;;;;;;;;;;;;;21.75;41.74;100024.94;4972341;28;98234;-70
2023/09/18 07:23:37;;;;;;;;;;;;;;;21.75;41.77;100024.94;4928598;28;98130;-68
2023/09/18 07:26:03;;;;;;;;;;;;;;;21.66;42.02;100031.75;4947038;28;97996;-70
2023/09/18 07:28:30;;;;;;;;;;;;;;;21.63;42.06;100019.53;4949544;28;97962;-68
2023/09/18 07:30:57;;;;;;;;;;;;;;;21.60;42.20;100017.50;4931856;28;98197;-70
2023/09/18 07:33:24;;;;;;;;;;;;;;;21.59;42.22;100004.16;4941028;28;99899;-71
2023/09/18 07:35:54;;;;;;;;;;;;;;;21.68;42.21;100004.75;4931873;28;97987;-68
2023/09/18 07:38:20;;;;;;;;;;;;;;;21.85;42.09;99998.94;4935240;28;98119;-68
2023/09/18 07:40:47;;;;;;;;;;;;;;;22.01;42.07;100009.91;4943186;28;98364;-70
2023/09/18 07:43:13;;;;;;;;;;;;;;;22.19;41.91;100004.88;4944591;28;98433;-71
2023/09/18 07:45:40;;;;;;;;;;;;;;;22.39;41.94;99992.00;4942661;27;98642;-71
2023/09/18 07:48:07;;;;;;;;;;;;;;;22.62;41.78;99987.41;4943172;28;98156;-71
2023/09/18 07:50:36;;;;;;;;;;;;;;;22.89;41.61;99985.63;4947885;28;98501;-68
2023/09/18 07:53:03;;;;;;;;;;;;;;;23.23;41.38;99992.22;4946754;28;97999;-71
2023/09/18 07:55:30;;;;;;;;;;;;;;;23.51;41.16;99994.69;4946643;27;99679;-71
2023/09/18 07:57:58;;;;;;;;;;;;;;;23.87;40.96;99989.81;4928846;28;98456;-71
2023/09/18 08:00:26;;;;;;;;;;;;;;;24.35;40.53;99989.38;4944457;28;98250;-68
2023/09/18 08:02:58;;;;;;;;;;;;;;;24.86;40.08;99988.88;4964217;28;98166;-71
2023/09/18 08:05:27;;;;;;;;;;;;;;;25.36;40.10;99982.00;4944938;28;98190;-68
2023/09/18 08:07:56;;;;;;;;;;;;;;;25.76;39.92;99985.13;4957906;28;98372;-68
2023/09/18 08:10:23;;;;;;;;;;;;;;;26.31;39.51;99987.91;4963763;28;98245;-68
2023/09/18 08:12:51;;;;;;;;;;;;;;;26.63;39.46;99982.59;4948386;28;98435;-68
2023/09/18 08:15:19;;;;;;;;;;;;;;;27.10;39.27;99984.38;4947643;28;99000;-68
2023/09/18 08:17:46;;;;;;;;;;;;;;;27.56;39.25;99983.69;4939421;28;98063;-68
2023/09/18 08:20:13;;;;;;;;;;;;;;;27.77;39.07;99982.94;4960742;28;98424;-70
2023/09/18 08:22:40;;;;;;;;;;;;;;;28.07;39.10;99978.97;4946380;27;98174;-70
2023/09/18 08:25:10;;;;;;;;;;;;;;;28.19;39.21;99969.47;4952620;28;100364;-68
2023/09/18 08:27:44;;;;;;;;;;;;;;;28.47;39.38;99971.41;4929601;28;100623;-68
2023/09/18 08:30:12;;;;;;;;;;;;;;;28.80;39.24;99965.31;4928676;28;98863;-67
2023/09/18 08:32:39;;;;;;;;;;;;;;;29.20;38.95;99959.59;4929596;28;98982;-69
2023/09/18 08:35:06;;;;;;;;;;;;;;;29.47;38.67;99960.59;4957969;28;99970;-69
2023/09/18 08:37:32;;;;;;;;;;;;;;;29.90;38.28;99967.81;4946514;28;98035;-68
2023/09/18 08:40:06;;;;;;;;;;;;;;;29.77;38.71;99957.22;4928345;28;98856;-66
2023/09/18 08:42:32;;;;;;;;;;;;;;;29.55;39.38;99962.13;4947385;28;98182;-69
2023/09/18 08:45:00;;;;;;;;;;;;;;;29.46;39.45;99969.34;4963839;28;97986;-70
2023/09/18 08:47:27;;;;;;;;;;;;;;;29.69;39.18;99966.03;4950360;28;99836;-66
2023/09/18 08:49:53;;;;;;;;;;;;;;;30.35;38.66;99965.03;4956256;28;99980;-65
2023/09/18 08:52:19;;;;;;;;;;;;;;;30.39;38.67;99963.78;4929657;28;98609;-64
2023/09/18 08:54:45;;;;;;;;;;;;;;;30.73;38.42;99954.63;4944995;28;98467;-71
2023/09/18 08:57:12;;;;;;;;;;;;;;;31.40;38.15;99955.75;4980171;27;98203;-65
2023/09/18 08:59:39;;;;;;;;;;;;;;;31.58;38.10;99965.81;4954616;28;98079;-70
2023/09/18 09:02:05;;;;;;;;;;;;;;;31.95;37.88;99951.69;4949870;28;98164;-71
2023/09/18 09:04:32;;;;;;;;;;;;;;;32.32;37.46;99954.56;4962603;28;98219;-65
2023/09/18 09:06:59;;;;;;;;;;;;;;;32.75;37.21;99946.16;4981510;27;98825;-68
2023/09/18 09:09:26;;;;;;;;;;;;;;;33.01;37.67;99943.63;4931182;28;98280;-68
2023/09/18 09:11:52;;;;;;;;;;;;;;;33.04;37.39;99937.97;4948525;28;98054;-63
2023/09/18 09:14:21;;;;;;;;;;;;;;;33.02;38.00;99934.84;4945564;28;99338;-64
2023/09/18 09:16:51;;;;;;;;;;;;;;;33.55;37.38;99930.00;4934116;28;99636;-65
2023/09/18 09:19:29;;;;;;;;;;;;;;;33.97;37.19;99921.75;4942829;28;100351;-70
2023/09/18 09:21:57;;;;;;;;;;;;;;;34.09;37.15;99926.63;4969201;28;99249;-65
2023/09/18 09:24:37;;;;;;;;;;;;;;;33.76;37.32;99917.50;4947128;28;99379;-65
2023/09/18 09:27:03;;;;;;;;;;;;;;;34.30;37.31;99924.47;4949053;28;98711;-71
2023/09/18 09:29:29;;;;;;;;;;;;;;;34.77;36.76;99937.91;4966419;28;98666;-71
2023/09/18 09:31:57;;;;;;;;;;;;;;;34.65;37.02;99928.25;4953753;28;98301;-70
2023/09/18 09:34:28;;;;;;;;;;;;;;;34.06;37.26;99921.13;4954027;28;98175;-70
2023/09/18 09:36:55;;;;;;;;;;;;;;;33.71;38.07;99915.22;4969833;28;98038;-65
2023/09/18 09:39:25;;;;;;;;;;;;;;;33.18;38.53;99914.53;4945791;28;98281;-65
2023/09/18 09:41:52;;;;;;;;;;;;;;;32.73;38.96;99904.72;4931161;28;99192;-71
2023/09/18 09:44:20;;;;;;;;;;;;;;;32.30;39.25;99898.47;4929469;28;99923;-66
2023/09/18 09:46:48;;;;;;;;;;;;;;;31.87;39.49;99891.69;4934821;28;98140;-71
2023/09/18 09:49:17;;;;;;;;;;;;;;;31.54;39.60;99890.69;4967258;28;99893;-70
2023/09/18 09:51:45;;;;;;;;;;;;;;;31.31;39.63;99893.47;4952050;28;99367;-65
2023/09/18 09:54:12;;;;;;;;;;;;;;;31.22;39.58;99899.53;4952066;28;98192;-70
2023/09/18 09:56:50;;;;;;;;;;;;;;;31.28;39.57;99904.22;4953492;28;99670;-65
2023/09/18 09:59:18;;;;;;;;;;;;;;;31.43;38.95;99904.00;4943013;28;98614;-70
2023/09/18 10:01:50;;;;;;;;;;;;;;;31.56;38.80;99893.84;4965206;28;98489;-65
2023/09/18 10:04:18;;;;;;;;;;;;;;;31.82;38.76;99892.16;4947931;28;98443;-70
2023/09/18 10:06:47;;;;;;;;;;;;;;;32.32;38.44;99888.47;4952306;28;98739;-65
2023/09/18 10:09:14;;;;;;;;;;;;;;;33.11;37.80;99900.75;4960680;28;99527;-65
2023/09/18 10:11:51;;;;;;;;;;;;;;;34.14;36.54;99898.13;4952647;28;98648;-65
2023/09/18 10:14:20;;;;;;;;;;;;;;;35.29;35.66;99894.72;4967256;28;97949;-64
2023/09/18 10:16:49;;;;;;;;;;;;;;;36.34;35.15;99896.28;4963871;28;99719;-71
2023/09/18 10:19:28;;;;;;;;;;;;;;;37.18;34.64;99885.06;4948990;28;99225;-64
2023/09/18 10:22:12;;;;;;;;;;;;;;;37.64;34.60;99901.22;4950808;28;98064;-66
2023/09/18 10:24:41;;;;;;;;;;;;;;;36.66;35.66;99886.69;4965999;28;100031;-72
2023/09/18 10:27:09;;;;;;;;;;;;;;;36.64;36.12;99886.38;4951601;28;98200;-72
2023/09/18 10:29:36;;;;;;;;;;;;;;;35.56;37.11;99872.59;4946738;28;98075;-65
2023/09/18 10:32:07;;;;;;;;;;;;;;;34.78;37.66;99886.31;4929876;28;98058;-71
2023/09/18 10:34:34;;;;;;;;;;;;;;;34.00;38.67;99881.78;4948803;28;99482;-71
2023/09/18 10:37:06;;;;;;;;;;;;;;;33.28;39.15;99876.41;4954106;28;97883;-71
2023/09/18 10:39:35;;;;;;;;;;;;;;;32.66;39.11;99884.56;4965947;28;98086;-71
2023/09/18 10:42:03;;;;;;;;;;;;;;;32.12;39.46;99880.09;4932992;28;98890;-66
2023/09/18 10:44:31;;;;;;;;;;;;;;;31.81;39.84;99884.25;4942731;28;98026;-71
2023/09/18 10:46:59;;;;;;;;;;;;;;;31.53;39.78;99866.84;4949231;28;98316;-71
2023/09/18 10:49:25;;;;;;;;;;;;;;;31.43;39.67;99857.44;4946521;28;98262;-71
2023/09/18 10:51:54;;;;;;;;;;;;;;;31.62;39.40;99867.06;4962722;28;98271;-71
2023/09/18 10:54:24;;;;;;;;;;;;;;;32.05;38.89;99866.31;4930717;28;98361;-65
2023/09/18 10:56:51;;;;;;;;;;;;;;;31.89;38.73;99869.00;4942292;28;98569;-72
2023/09/18 10:59:19;;;;;;;;;;;;;;;32.16;38.77;99880.81;4948391;28;97812;-65
2023/09/18 11:01:48;;;;;;;;;;;;;;;31.71;39.04;99872.09;4945654;28;97914;-71
2023/09/18 11:04:17;;;;;;;;;;;;;;;31.38;39.41;99871.88;4971209;27;99460;-66
2023/09/18 11:06:55;;;;;;;;;;;;;;;31.29;39.31;99871.59;4960130;28;99977;-71
2023/09/18 11:09:33;;;;;;;;;;;;;;;31.33;39.37;99871.56;4966542;28;97973;-65
2023/09/18 11:12:01;;;;;;;;;;;;;;;31.35;39.20;99861.56;4965196;27;97959;-70
2023/09/18 11:14:43;;;;;;;;;;;;;;;31.34;39.29;99862.00;4962405;28;98208;-66
2023/09/18 11:17:38;;;;;;;;;;;;;;;31.12;39.39;99864.31;4975472;27;98491;-65
2023/09/18 11:20:21;;;;;;;;;;;;;;;30.71;39.75;99868.06;4968004;28;98339;-71
2023/09/18 11:23:12;;;;;;;;;;;;;;;30.35;39.93;99860.22;4950916;28;98444;-65
2023/09/18 11:25:41;;;;;;;;;;;;;;;30.06;40.23;99862.50;4949926;28;99413;-71
2023/09/18 11:28:08;;;;;;;;;;;;;;;29.84;40.51;99864.72;4961378;28;99862;-64
2023/09/18 11:30:37;;;;;;;;;;;;;;;29.60;40.47;99872.09;4948908;28;98832;-65
2023/09/18 11:33:08;;;;;;;;;;;;;;;29.38;40.40;99874.25;4948252;28;99279;-70
2023/09/18 11:35:35;;;;;;;;;;;;;;;29.23;40.48;99873.56;4931113;28;99791;-71
2023/09/18 11:38:09;;;;;;;;;;;;;;;29.08;40.49;99870.13;4951821;28;98641;-70
2023/09/18 11:40:41;;;;;;;;;;;;;;;28.95;40.42;99873.75;4923382;28;98432;-65
2023/09/18 11:43:29;;;;;;;;;;;;;;;28.83;40.77;99866.69;4980158;27;99260;-71
2023/09/18 11:45:57;;;;;;;;;;;;;;;28.78;40.46;99859.59;4963711;27;98846;-65
2023/09/18 11:48:24;;;;;;;;;;;;;;;28.94;40.07;99874.94;4946266;28;98115;-71
2023/09/18 11:50:52;;;;;;;;;;;;;;;29.55;39.70;99872.50;4944728;28;99667;-70
2023/09/18 11:53:21;;;;;;;;;;;;;;;29.83;39.48;99871.50;4949630;28;99597;-71
2023/09/18 11:55:47;;;;;;;;;;;;;;;30.20;39.04;99869.91;4950591;28;98101;-66
2023/09/18 11:58:14;;;;;;;;;;;;;;;30.54;38.74;99867.13;4933537;28;98860;-71
2023/09/18 12:00:47;;;;;;;;;;;;;;;30.77;38.71;99869.19;4952582;28;98126;-71
2023/09/18 12:03:24;;;;;;;;;;;;;;;32.12;37.34;99865.38;4964481;28;99362;-65
2023/09/18 12:05:58;;;;;;;;;;;;;;;32.57;37.35;99868.44;4955306;28;99924;-71
2023/09/18 12:08:27;;;;;;;;;;;;;;;32.53;37.93;99859.38;4948032;28;98376;-71
2023/09/18 12:10:54;;;;;;;;;;;;;;;32.73;37.57;99862.88;4948611;28;98742;-65
2023/09/18 12:13:20;;;;;;;;;;;;;;;33.14;37.74;99852.44;4948246;28;98994;-65
2023/09/18 12:15:49;;;;;;;;;;;;;;;33.18;37.72;99859.50;4949278;28;100281;-65
2023/09/18 12:18:15;;;;;;;;;;;;;;;33.01;37.71;99849.53;4944883;28;98134;-71
2023/09/18 12:20:50;;;;;;;;;;;;;;;33.89;37.05;99850.50;4941772;28;98593;-65
2023/09/18 12:23:19;;;;;;;;;;;;;;;34.53;36.41;99850.72;4973018;27;98159;-72
2023/09/18 12:25:49;;;;;;;;;;;;;;;34.79;36.79;99843.91;4962489;28;98439;-72
2023/09/18 12:28:16;;;;;;;;;;;;;;;34.94;36.68;99841.44;4928218;28;98076;-72
2023/09/18 12:30:43;;;;;;;;;;;;;;;34.75;37.17;99843.22;4939833;28;98209;-71
2023/09/18 12:33:09;;;;;;;;;;;;;;;34.65;37.43;99838.75;4948947;28;98648;-65
2023/09/18 12:35:35;;;;;;;;;;;;;;;34.84;37.27;99832.13;4961193;28;100185;-71
2023/09/18 12:38:04;;;;;;;;;;;;;;;35.12;37.05;99832.47;4924169;28;99395;-65
2023/09/18 12:40:32;;;;;;;;;;;;;;;34.91;37.57;99833.94;4940356;28;99360;-65
2023/09/18 12:43:02;;;;;;;;;;;;;;;34.44;37.99;99835.34;4923186;28;98402;-65
2023/09/18 12:45:29;;;;;;;;;;;;;;;34.24;37.92;99822.78;4940703;28;98245;-71